createdAt,value
2018-08-08T00:03:47.082Z,59.70
2018-08-08T00:08:30.912Z,59.00
2018-08-08T00:13:14.622Z,59.10
2018-08-08T00:17:58.406Z,59.90
2018-08-08T00:22:42.377Z,61.40
2018-08-08T00:27:26.349Z,62.00
2018-08-08T00:32:10.037Z,62.60
2018-08-08T00:36:53.770Z,63.80
2018-08-08T00:41:37.547Z,65.30
2018-08-08T00:46:21.416Z,66.60
2018-08-08T00:51:05.103Z,67.90
2018-08-08T00:55:48.775Z,67.70
2018-08-08T01:00:32.459Z,66.20
2018-08-08T01:05:16.879Z,66.90
2018-08-08T01:10:00.564Z,66.90
2018-08-08T01:14:44.363Z,65.40
2018-08-08T01:19:28.211Z,65.80
2018-08-08T01:24:11.911Z,67.30
2018-08-08T01:28:55.529Z,65.40
2018-08-08T01:33:39.292Z,67.00
2018-08-08T01:38:23.231Z,69.20
2018-08-08T01:43:07.361Z,67.90
2018-08-08T01:47:51.062Z,68.90
2018-08-08T01:52:34.897Z,68.90
2018-08-08T01:57:18.648Z,69.50
2018-08-08T02:02:02.449Z,70.10
2018-08-08T02:06:46.185Z,71.30
2018-08-08T02:11:30.389Z,72.50
2018-08-08T02:16:14.430Z,73.00
2018-08-08T02:20:58.253Z,74.60
2018-08-08T02:25:41.889Z,74.90
2018-08-08T02:30:25.637Z,75.70
2018-08-08T02:35:09.383Z,75.50
2018-08-08T02:39:53.120Z,77.70
2018-08-08T02:44:37.831Z,79.40
2018-08-08T02:49:21.627Z,82.20
2018-08-08T02:54:05.504Z,84.70
2018-08-08T02:58:49.216Z,85.40
2018-08-08T03:03:32.920Z,84.90
2018-08-08T03:08:16.690Z,85.30
2018-08-08T03:13:00.445Z,84.80
2018-08-08T03:17:44.220Z,85.40
2018-08-08T03:22:28.078Z,87.90
2018-08-08T03:27:12.256Z,85.70
2018-08-08T03:31:56.148Z,84.70
2018-08-08T03:36:39.890Z,84.30
2018-08-08T03:41:23.649Z,84.80
2018-08-08T03:46:07.831Z,86.50
2018-08-08T03:50:51.834Z,86.70
2018-08-08T03:55:35.579Z,89.20
2018-08-08T04:00:20.797Z,89.50
2018-08-08T04:05:04.834Z,87.00
2018-08-08T04:09:48.660Z,85.90
2018-08-08T04:14:32.437Z,85.10
2018-08-08T04:19:17.075Z,86.30
2018-08-08T04:24:00.935Z,89.10
2018-08-08T04:28:44.684Z,90.00
2018-08-08T04:33:28.533Z,90.50
2018-08-08T04:38:12.290Z,91.00
2018-08-08T04:42:56.141Z,91.20
2018-08-08T04:47:40.301Z,91.20
2018-08-08T04:52:24.221Z,90.70
2018-08-08T04:57:07.853Z,90.60
2018-08-08T05:01:51.726Z,90.60
2018-08-08T05:06:35.669Z,89.70
2018-08-08T05:11:19.565Z,86.40
2018-08-08T05:16:03.393Z,84.80
2018-08-08T05:20:47.418Z,84.40
2018-08-08T05:25:32.251Z,83.90
2018-08-08T05:30:21.592Z,85.10
2018-08-08T05:35:06.124Z,83.70
2018-08-08T05:39:50.521Z,84.50
2018-08-08T05:44:34.511Z,85.40
2018-08-08T05:49:18.250Z,83.30
2018-08-08T05:54:02.011Z,82.30
2018-08-08T05:58:45.837Z,82.00
2018-08-08T06:03:29.646Z,80.30
2018-08-08T06:08:13.470Z,77.90
2018-08-08T06:12:57.242Z,75.00
2018-08-08T06:17:41.255Z,74.80
2018-08-08T06:22:24.942Z,73.70
2018-08-08T06:27:08.664Z,72.80
2018-08-08T06:31:52.578Z,74.80
2018-08-08T06:36:36.776Z,76.80
2018-08-08T06:41:20.757Z,77.00
2018-08-08T06:46:04.585Z,76.90
2018-08-08T06:50:48.650Z,76.90
2018-08-08T06:55:32.332Z,73.60
2018-08-08T07:00:25.201Z,70.60
2018-08-08T07:05:08.972Z,69.60
2018-08-08T07:09:53.096Z,68.00
2018-08-08T07:14:37.027Z,67.80
2018-08-08T07:19:20.814Z,67.30
2018-08-08T07:24:04.440Z,63.70
2018-08-08T07:28:48.199Z,64.50
2018-08-08T07:33:31.970Z,63.20
2018-08-08T07:38:15.864Z,62.80
2018-08-08T07:43:00.632Z,63.40
2018-08-08T07:47:44.398Z,61.20
2018-08-08T07:52:28.564Z,61.30
2018-08-08T07:57:12.303Z,60.40
2018-08-08T08:01:56.297Z,59.80
2018-08-08T08:06:40.057Z,58.00
2018-08-08T08:11:23.726Z,57.40
2018-08-08T08:16:07.388Z,56.10
2018-08-08T08:20:51.246Z,55.50
2018-08-08T08:25:35.074Z,55.70
2018-08-08T08:30:19.643Z,55.10
2018-08-08T08:35:03.307Z,53.10
2018-08-08T08:39:47.157Z,51.70
2018-08-08T08:44:30.945Z,52.30
2018-08-08T08:49:14.677Z,51.90
2018-08-08T08:53:58.600Z,51.30
2018-08-08T08:58:42.421Z,49.90
2018-08-08T09:03:26.521Z,49.80
2018-08-08T09:08:10.341Z,50.80
2018-08-08T09:12:54.186Z,50.70
2018-08-08T09:17:38.033Z,49.60
2018-08-08T09:22:21.658Z,49.90
2018-08-08T09:27:05.319Z,49.00
2018-08-08T09:31:48.975Z,47.80
2018-08-08T09:36:32.955Z,46.80
2018-08-08T09:41:16.694Z,46.60
2018-08-08T09:46:00.432Z,46.10
2018-08-08T09:50:44.265Z,46.20
2018-08-08T09:55:28.054Z,44.80
2018-08-08T10:00:15.962Z,44.30
2018-08-08T10:04:59.700Z,42.40
2018-08-08T10:09:43.307Z,44.30
2018-08-08T10:14:27.007Z,44.00
2018-08-08T10:19:11.497Z,42.60
2018-08-08T10:23:55.119Z,43.50
2018-08-08T10:28:38.805Z,43.40
2018-08-08T10:33:22.562Z,43.00
2018-08-08T10:38:06.303Z,44.30
2018-08-08T10:42:50.023Z,45.50
2018-08-08T10:47:33.765Z,46.50
2018-08-08T10:52:17.711Z,48.20
2018-08-08T10:57:01.406Z,47.70
2018-08-08T11:01:45.469Z,46.00
2018-08-08T11:06:29.243Z,46.90
2018-08-08T11:11:12.959Z,44.50
2018-08-08T11:15:56.886Z,41.90
2018-08-08T11:20:40.628Z,39.30
2018-08-08T11:25:24.369Z,39.00
2018-08-08T11:30:08.289Z,37.90
2018-08-08T11:34:52.164Z,38.40
2018-08-08T11:39:36.155Z,38.50
2018-08-08T11:44:19.905Z,38.20
2018-08-08T11:49:03.715Z,39.10
2018-08-08T11:53:47.377Z,41.30
2018-08-08T11:58:31.148Z,43.40
2018-08-08T12:03:14.892Z,48.00
2018-08-08T12:07:58.896Z,53.10
2018-08-08T12:12:42.707Z,62.70
2018-08-08T12:17:26.384Z,73.40
2018-08-08T12:22:10.229Z,82.40
2018-08-08T12:26:54.033Z,95.80
2018-08-08T12:31:37.730Z,92.20
2018-08-08T12:36:21.424Z,90.00
2018-08-08T12:41:05.108Z,90.80
2018-08-08T12:45:49.025Z,81.00
2018-08-08T12:50:32.690Z,84.00
2018-08-08T12:55:16.437Z,84.40
2018-08-08T13:00:00.200Z,85.20
2018-08-08T13:04:44.183Z,82.20
2018-08-08T13:09:28.076Z,83.60
2018-08-08T13:14:11.902Z,80.60
2018-08-08T13:18:55.577Z,76.80
2018-08-08T13:23:39.352Z,77.90
2018-08-08T13:28:23.092Z,75.40
2018-08-08T13:33:06.863Z,81.10
2018-08-08T13:37:51.125Z,81.20
2018-08-08T13:42:34.955Z,75.00
2018-08-08T13:47:19.082Z,77.40
2018-08-08T13:52:02.853Z,77.10
2018-08-08T13:56:46.579Z,77.30
2018-08-08T14:01:30.472Z,75.90
2018-08-08T14:06:14.256Z,83.30
2018-08-08T14:10:58.095Z,82.40
2018-08-08T14:15:41.934Z,89.00
2018-08-08T14:20:25.849Z,91.00
2018-08-08T14:25:09.926Z,90.50
2018-08-08T14:29:53.569Z,86.40
2018-08-08T14:34:37.300Z,86.90
2018-08-08T14:39:21.194Z,84.00
2018-08-08T14:44:05.021Z,86.30
2018-08-08T14:48:48.990Z,83.20
2018-08-08T14:53:33.083Z,83.60
2018-08-08T14:58:17.149Z,88.20
2018-08-08T15:03:00.888Z,90.50
2018-08-08T15:07:44.572Z,94.50
2018-08-08T15:12:28.294Z,97.20
2018-08-08T15:17:12.089Z,97.70
2018-08-08T15:21:56.007Z,96.60
2018-08-08T15:26:40.117Z,97.00
2018-08-08T15:31:24.057Z,96.30
2018-08-08T15:36:07.889Z,94.70
2018-08-08T15:40:51.718Z,91.20
2018-08-08T15:45:35.544Z,86.50
2018-08-08T15:50:19.293Z,85.30
2018-08-08T15:55:03.573Z,85.70
2018-08-08T15:59:47.465Z,86.20
2018-08-08T16:04:31.602Z,86.50
2018-08-08T16:09:15.561Z,87.20
2018-08-08T16:13:59.466Z,86.80
2018-08-08T16:18:43.712Z,89.70
2018-08-08T16:23:28.141Z,87.90
2018-08-08T16:28:11.980Z,87.20
2018-08-08T16:32:55.920Z,87.20
2018-08-08T16:37:39.777Z,88.30
2018-08-08T16:42:23.781Z,91.30
2018-08-08T16:47:07.684Z,91.40
2018-08-08T16:51:51.691Z,89.70
2018-08-08T16:57:39.040Z,90.30
2018-08-08T17:02:23.104Z,94.30
2018-08-08T17:07:06.944Z,95.80
2018-08-08T17:11:50.792Z,97.00
2018-08-08T17:16:34.571Z,96.30
2018-08-08T17:21:18.810Z,95.20
2018-08-08T17:26:02.496Z,96.40
2018-08-08T17:30:46.493Z,96.00
2018-08-08T17:35:30.213Z,94.70
2018-08-08T17:40:13.998Z,93.90
2018-08-08T17:44:57.824Z,94.30
2018-08-08T17:49:41.588Z,96.10
2018-08-08T17:54:25.572Z,97.90
2018-08-08T17:59:09.326Z,99.90
2018-08-08T18:03:53.170Z,99.90
2018-08-08T18:08:36.890Z,99.90
2018-08-08T18:13:20.662Z,99.10
2018-08-08T18:18:04.375Z,98.60
2018-08-08T18:22:48.138Z,99.50
2018-08-08T18:27:31.929Z,98.70
2018-08-08T18:32:15.683Z,99.90
2018-08-08T18:36:59.509Z,99.90
2018-08-08T18:41:43.284Z,99.90
2018-08-08T18:46:27.224Z,99.90
2018-08-08T18:51:11.115Z,99.90
2018-08-08T18:55:55.196Z,99.90
2018-08-08T19:00:39.538Z,99.90
2018-08-08T19:05:25.249Z,99.90
2018-08-08T19:10:09.262Z,99.90
2018-08-08T19:14:54.653Z,99.90
2018-08-08T19:19:38.597Z,99.90
2018-08-08T19:24:22.763Z,99.90
2018-08-08T19:29:07.942Z,99.90
2018-08-08T19:33:53.275Z,99.90
2018-08-08T19:38:37.373Z,99.90
2018-08-08T19:43:25.734Z,99.90
2018-08-08T19:48:10.096Z,99.90
2018-08-08T19:52:54.365Z,99.90
2018-08-08T19:57:41.171Z,99.90
2018-08-08T20:02:25.508Z,99.90
2018-08-08T20:07:15.758Z,99.90
2018-08-08T20:12:05.328Z,99.90
2018-08-08T20:16:53.762Z,99.90
2018-08-08T20:21:41.451Z,99.90
2018-08-08T20:26:26.799Z,99.90
2018-08-08T20:31:12.358Z,99.90
2018-08-08T20:35:57.248Z,99.90
2018-08-08T20:40:41.704Z,99.90
2018-08-08T20:45:26.467Z,99.90
2018-08-08T20:50:10.324Z,99.90
2018-08-08T20:54:54.031Z,99.90
2018-08-08T20:59:37.834Z,99.90
2018-08-08T21:04:21.530Z,99.90
2018-08-08T21:09:07.313Z,99.90
2018-08-08T21:13:51.095Z,99.90
2018-08-08T21:18:34.937Z,99.90
2018-08-08T21:23:18.732Z,99.90
2018-08-08T21:28:02.424Z,99.90
2018-08-08T21:32:46.206Z,99.90
2018-08-08T21:37:29.984Z,99.90
2018-08-08T21:42:13.772Z,99.90
2018-08-08T21:46:57.609Z,99.90
2018-08-08T21:51:41.299Z,99.90
2018-08-08T21:56:36.350Z,99.90
2018-08-08T22:01:32.075Z,99.90
2018-08-08T22:06:26.713Z,99.90
2018-08-08T22:11:21.639Z,99.90
2018-08-08T22:16:16.615Z,99.90
2018-08-08T22:21:00.475Z,99.90
2018-08-08T22:25:44.109Z,99.90
2018-08-08T22:30:27.839Z,99.90
2018-08-08T22:35:11.512Z,99.90
2018-08-08T22:39:55.186Z,99.90
2018-08-08T22:44:39.927Z,99.90
2018-08-08T22:49:23.654Z,99.90
2018-08-08T22:59:33.387Z,99.90
2018-08-08T23:04:18.226Z,99.90
2018-08-08T23:09:01.953Z,99.90
2018-08-08T23:13:45.803Z,99.90
2018-08-08T23:18:29.545Z,99.90
2018-08-08T23:23:13.275Z,99.90
2018-08-08T23:27:57.139Z,99.90
2018-08-08T23:32:41.039Z,99.90
2018-08-08T23:37:24.832Z,99.90
2018-08-08T23:42:08.767Z,99.90
2018-08-08T23:46:52.441Z,99.90
2018-08-08T23:51:36.331Z,99.90
2018-08-08T23:56:20.124Z,99.90
